Time;durP1;ratioP1;P1;durP2;ratioP2;P2;SDS_P1;SDS_P2;PMS_P1;PMS_P2;Temp;Humidity;BMP_temperature;BMP_pressure;BME280_temperature;BME280_humidity;BME280_pressure;Samples;Min_cycle;Max_cycle;Signal;HPM_P1;HPM_P2
2022/12/13 00:00:09;;;;;;;59.72;22.65;;;;;;;-3.77;100.00;101193.03;5057546;28;20513;-39
2022/12/13 00:02:34;;;;;;;58.60;22.95;;;;;;;-3.79;100.00;101193.13;5072982;28;20047;-41
2022/12/13 00:04:59;;;;;;;63.05;24.02;;;;;;;-3.80;100.00;101190.56;5068868;28;20443;-39
2022/12/13 00:07:25;;;;;;;60.45;24.42;;;;;;;-3.80;100.00;101190.56;5070556;28;20036;-42
2022/12/13 00:09:50;;;;;;;60.28;23.42;;;;;;;-3.82;100.00;101193.31;5072889;28;20025;-40
2022/12/13 00:12:15;;;;;;;61.83;23.73;;;;;;;-3.83;100.00;101183.69;5071041;28;20024;-39
2022/12/13 00:14:41;;;;;;;57.05;23.35;;;;;;;-3.86;100.00;101189.13;5060993;28;20578;-40
2022/12/13 00:17:06;;;;;;;58.35;22.30;;;;;;;-3.87;100.00;101184.81;5051847;28;20049;-40
2022/12/13 00:19:31;;;;;;;51.67;21.00;;;;;;;-3.86;100.00;101185.66;5074222;28;20548;-40
2022/12/13 00:21:57;;;;;;;61.03;21.73;;;;;;;-3.89;100.00;101186.66;5051909;28;20047;-39
2022/12/13 00:24:22;;;;;;;58.00;21.95;;;;;;;-3.91;100.00;101187.66;5064566;28;20499;-37
2022/12/13 00:26:48;;;;;;;54.15;20.75;;;;;;;-3.92;100.00;101186.81;5050343;28;20128;-40
2022/12/13 00:29:13;;;;;;;56.70;23.38;;;;;;;-3.91;100.00;101182.41;5053214;28;20033;-38
2022/12/13 00:31:38;;;;;;;47.35;21.65;;;;;;;-3.90;100.00;101184.94;5051833;28;20052;-40
2022/12/13 00:34:04;;;;;;;56.20;22.35;;;;;;;-3.90;100.00;101181.47;5056893;28;20028;-40
2022/12/13 00:36:29;;;;;;;58.72;21.38;;;;;;;-3.90;100.00;101187.56;5063088;28;20085;-39
2022/12/13 00:39:00;;;;;;;50.60;20.55;;;;;;;-3.91;100.00;101187.66;5072344;28;20132;-40
2022/12/13 00:41:31;;;;;;;49.60;21.02;;;;;;;-3.93;100.00;101174.59;5071430;28;20032;-37
2022/12/13 00:43:57;;;;;;;49.67;21.30;;;;;;;-3.93;100.00;101177.22;5067947;28;20020;-40
2022/12/13 00:46:23;;;;;;;54.88;19.63;;;;;;;-3.98;100.00;101174.84;5051464;28;20075;-40
2022/12/13 00:48:51;;;;;;;54.67;20.40;;;;;;;-4.00;100.00;101167.97;5051519;28;20064;-40
2022/12/13 00:51:16;;;;;;;48.03;19.60;;;;;;;-4.00;100.00;101170.59;5050391;28;20028;-40
2022/12/13 00:53:42;;;;;;;45.90;19.88;;;;;;;-4.01;100.00;101166.25;5051232;28;20409;-38
2022/12/13 00:56:12;;;;;;;56.63;21.85;;;;;;;-4.01;100.00;101161.00;5052649;28;20369;-38
2022/12/13 00:58:38;;;;;;;52.35;20.80;;;;;;;-3.99;100.00;101160.00;5051144;28;20079;-40
2022/12/13 01:01:05;;;;;;;53.88;21.38;;;;;;;-4.00;100.00;101158.31;5050818;28;20032;-39
2022/12/13 01:03:31;;;;;;;48.37;19.37;;;;;;;-4.01;100.00;101161.00;5054532;28;20037;-40
2022/12/13 01:05:58;;;;;;;48.42;20.17;;;;;;;-4.03;100.00;101157.59;5051347;28;20116;-39
2022/12/13 01:08:24;;;;;;;62.42;21.33;;;;;;;-4.03;100.00;101162.84;5051239;28;20029;-39
2022/12/13 01:10:49;;;;;;;50.50;20.65;;;;;;;-4.01;100.00;101166.25;5051754;28;20029;-39
2022/12/13 01:13:15;;;;;;;49.95;20.80;;;;;;;-4.02;100.00;101157.53;5050377;28;20430;-40
2022/12/13 01:15:44;;;;;;;50.17;19.60;;;;;;;-4.03;100.00;101157.59;5071047;28;20325;-39
2022/12/13 01:18:13;;;;;;;45.92;19.95;;;;;;;-4.05;100.00;101149.81;5070981;28;20094;-40
2022/12/13 01:20:39;;;;;;;51.08;19.40;;;;;;;-4.07;100.00;101148.19;5055986;28;20106;-39
2022/12/13 01:23:05;;;;;;;44.83;19.08;;;;;;;-4.05;100.00;101138.44;5063355;28;20086;-40
2022/12/13 01:25:32;;;;;;;49.10;19.40;;;;;;;-4.05;100.00;101143.72;5068376;28;20404;-40
2022/12/13 01:28:00;;;;;;;48.33;20.17;;;;;;;-4.05;100.00;101141.09;5069524;28;20045;-38
2022/12/13 01:30:25;;;;;;;;;;;;;;;-4.08;100.00;101138.59;5071676;28;20471;-40
2022/12/13 01:32:51;;;;;;;43.05;18.33;;;;;;;-4.20;100.00;101145.34;5070608;28;19912;-39
2022/12/13 01:35:16;;;;;;;52.22;20.25;;;;;;;-4.27;100.00;101139.56;5058968;28;20115;-40
2022/12/13 01:37:41;;;;;;;49.30;21.40;;;;;;;-4.30;100.00;101139.72;5059914;28;20079;-39
2022/12/13 01:40:08;;;;;;;59.13;21.30;;;;;;;-4.30;100.00;101139.72;5052332;28;20032;-40
2022/12/13 01:42:37;;;;;;;55.13;21.52;;;;;;;-4.30;100.00;101139.72;5053884;28;20036;-39
2022/12/13 01:45:24;;;;;;;56.58;20.92;;;;;;;-4.32;100.00;101145.97;5066213;28;20147;-37
2022/12/13 01:47:56;;;;;;;47.40;19.58;;;;;;;-4.32;100.00;101146.81;5059886;28;20115;-37
2022/12/13 01:50:25;;;;;;;56.38;21.83;;;;;;;-4.32;100.00;101149.44;5069977;28;20291;-40
2022/12/13 01:52:52;;;;;;;55.17;20.17;;;;;;;-4.33;100.00;101142.50;5070249;28;20499;-37
2022/12/13 01:55:19;;;;;;;44.97;20.02;;;;;;;-4.35;100.00;101144.34;5069670;28;20036;-38
2022/12/13 01:57:45;;;;;;;52.00;20.52;;;;;;;-4.36;100.00;101144.44;5069024;28;20051;-39
2022/12/13 02:00:11;;;;;;;59.70;20.05;;;;;;;-4.37;100.00;101145.34;5062662;28;20021;-39
2022/12/13 02:02:37;;;;;;;48.20;20.17;;;;;;;-4.37;100.00;101148.88;5042840;28;20028;-39
2022/12/13 02:05:10;;;;;;;47.45;20.80;;;;;;;-4.35;100.00;101144.34;5061298;28;20023;-40
2022/12/13 02:07:36;;;;;;;48.97;19.00;;;;;;;-4.35;100.00;101144.34;5053261;28;20060;-40
2022/12/13 02:10:03;;;;;;;53.67;20.52;;;;;;;-4.35;100.00;101144.34;5065383;28;20163;-38
2022/12/13 02:12:31;;;;;;;45.38;20.40;;;;;;;-4.34;100.00;101143.44;5052119;28;20459;-41
2022/12/13 02:15:10;;;;;;;44.73;19.13;;;;;;;-4.31;100.00;101145.91;5057846;28;20480;-39
2022/12/13 02:17:35;;;;;;;52.55;21.25;;;;;;;-4.32;100.00;101141.56;5066059;28;20105;-39
2022/12/13 02:20:31;;;;;;;53.20;20.95;;;;;;;-4.35;100.00;101136.47;5054174;28;20029;-40
2022/12/13 02:23:21;;;;;;;46.58;20.85;;;;;;;-4.37;100.00;101137.47;5054219;28;20028;-37
2022/12/13 02:26:26;;;;;;;50.25;19.00;;;;;;;-4.38;100.00;101131.38;5061354;28;20074;-40
2022/12/13 02:29:11;;;;;;;47.90;18.83;;;;;;;-4.40;100.00;101130.59;5058777;28;20123;-39
2022/12/13 02:31:48;;;;;;;52.88;20.60;;;;;;;-4.41;100.00;101128.91;5053754;28;20028;-40
2022/12/13 02:34:20;;;;;;;49.90;19.43;;;;;;;-4.43;100.00;101128.13;5062965;28;20021;-39
2022/12/13 02:36:55;;;;;;;48.33;19.27;;;;;;;-4.43;100.00;101123.72;5059972;28;20082;-39
2022/12/13 02:39:23;;;;;;;46.97;19.63;;;;;;;-4.44;100.00;101126.44;5060394;28;20436;-40
2022/12/13 02:41:50;;;;;;;50.60;20.25;;;;;;;-4.46;100.00;101126.50;5066370;28;20491;-39
2022/12/13 02:44:19;;;;;;;47.03;19.45;;;;;;;-4.46;100.00;101121.25;5067829;28;20040;-40
2022/12/13 02:46:51;;;;;;;41.88;19.27;;;;;;;-4.45;100.00;101130.00;5063963;28;20031;-39
2022/12/13 02:49:17;;;;;;;44.20;19.35;;;;;;;-4.48;100.00;101135.41;5068289;28;20514;-40
2022/12/13 02:51:43;;;;;;;50.78;19.98;;;;;;;-4.49;100.00;101129.31;5053749;28;20033;-39
2022/12/13 02:54:09;;;;;;;42.10;18.45;;;;;;;-4.48;100.00;101123.13;5052463;28;20430;-40
2022/12/13 02:56:34;;;;;;;51.03;19.17;;;;;;;-4.47;100.00;101127.47;5056987;28;20025;-37
2022/12/13 02:59:02;;;;;;;45.50;18.50;;;;;;;-4.47;100.00;101127.47;5053145;28;20457;-40
2022/12/13 03:01:59;;;;;;;44.75;18.10;;;;;;;-4.45;100.00;101127.34;5051751;28;20059;-40
2022/12/13 03:06:28;;;;;;;38.55;16.77;;;;;;;-4.46;100.00;101123.03;5060362;28;20424;-41
2022/12/13 03:07:35;;;;;;;42.08;18.02;;;;;;;-4.49;100.00;101117.97;5072163;28;20040;-41
2022/12/13 03:10:05;;;;;;;46.70;17.73;;;;;;;-4.54;100.00;101118.19;5072564;28;20029;-41
2022/12/13 03:15:45;;;;;;;43.40;17.85;;;;;;;-4.59;100.00;101111.47;5053268;28;20058;-40
2022/12/13 03:18:14;;;;;;;36.45;18.90;;;;;;;-4.61;100.00;101119.41;5052380;28;20052;-40
2022/12/13 03:20:45;;;;;;;40.33;18.42;;;;;;;-4.64;100.00;101115.16;5052069;28;20016;-39
2022/12/13 03:23:10;;;;;;;40.60;17.15;;;;;;;-4.65;100.00;101118.72;5054168;28;20025;-40
2022/12/13 03:25:36;;;;;;;49.15;20.27;;;;;;;-4.67;100.00;101120.56;5065082;28;20032;-42
2022/12/13 03:28:01;;;;;;;46.30;17.63;;;;;;;-4.70;100.00;101126.00;5053973;28;20044;-40
2022/12/13 03:30:27;;;;;;;47.35;18.10;;;;;;;-4.71;100.00;101121.69;5061956;28;20028;-40
2022/12/13 03:32:53;;;;;;;44.55;17.52;;;;;;;-4.72;100.00;101116.50;5051038;28;20044;-39
2022/12/13 03:35:18;;;;;;;46.28;18.70;;;;;;;-4.74;100.00;101118.34;5034184;28;20064;-40
2022/12/13 03:37:44;;;;;;;51.83;18.83;;;;;;;-4.73;100.00;101120.91;5052660;28;20029;-40
2022/12/13 03:40:10;;;;;;;47.92;17.92;;;;;;;-4.74;100.00;101108.72;5052252;28;20025;-40
2022/12/13 03:42:35;;;;;;;42.40;18.30;;;;;;;-4.75;100.00;101117.50;5050982;28;20688;-40
2022/12/13 03:45:00;;;;;;;45.00;18.20;;;;;;;-4.74;100.00;101116.59;5051109;28;20391;-40
2022/12/13 03:47:26;;;;;;;50.40;19.73;;;;;;;-4.74;100.00;101119.22;5053393;28;20112;-40
2022/12/13 03:49:51;;;;;;;40.72;18.30;;;;;;;-4.76;100.00;101115.81;5053325;28;20091;-40
2022/12/13 03:52:16;;;;;;;45.85;19.60;;;;;;;-4.76;100.00;101110.56;5063609;28;20040;-40
2022/12/13 03:54:42;;;;;;;44.67;18.17;;;;;;;-4.73;100.00;101117.44;5053324;28;20033;-40
2022/12/13 03:57:07;;;;;;;43.55;18.17;;;;;;;-4.77;100.00;101110.63;5055073;28;20029;-40
2022/12/13 03:59:32;;;;;;;46.40;17.98;;;;;;;-4.81;100.00;101109.94;5053692;28;20476;-38
2022/12/13 04:01:58;;;;;;;44.67;19.83;;;;;;;-4.80;100.00;101114.25;5058149;28;20499;-37
2022/12/13 04:04:23;;;;;;;51.30;19.08;;;;;;;-4.80;100.00;101118.66;5053178;28;20029;-39
2022/12/13 04:06:48;;;;;;;44.47;18.95;;;;;;;-4.78;100.00;101119.44;5054403;28;20021;-40
2022/12/13 04:09:14;;;;;;;37.45;17.85;;;;;;;-4.81;100.00;101112.56;5052866;28;20044;-40
2022/12/13 04:14:23;;;;;;;42.85;17.42;;;;;;;-4.87;100.00;101103.22;5051245;28;20091;-38
2022/12/13 04:16:50;;;;;;;46.53;18.15;;;;;;;-4.96;100.00;101105.44;5055879;28;20032;-39
2022/12/13 04:19:15;;;;;;;42.45;17.27;;;;;;;-4.98;100.00;101110.75;5054403;28;20483;-39
2022/12/13 04:21:41;;;;;;;45.65;18.20;;;;;;;-4.98;100.00;101105.50;5071091;28;20033;-41
2022/12/13 04:24:06;;;;;;;47.40;17.73;;;;;;;-4.95;100.00;101094.00;5066619;28;20025;-41
2022/12/13 04:26:31;;;;;;;41.75;17.33;;;;;;;-4.97;100.00;101101.13;5059145;28;20033;-43
2022/12/13 04:28:57;;;;;;;44.00;18.58;;;;;;;-5.00;100.00;101098.63;5069926;28;20025;-37
2022/12/13 04:31:22;;;;;;;46.67;18.45;;;;;;;-5.00;100.00;101093.38;5071338;28;20066;-39
2022/12/13 04:33:47;;;;;;;45.30;19.10;;;;;;;-4.99;100.00;101095.09;5056543;28;20447;-39
2022/12/13 04:36:18;;;;;;;50.63;18.92;;;;;;;-4.94;100.00;101101.81;5056884;28;20122;-42
2022/12/13 04:38:47;;;;;;;40.50;17.55;;;;;;;-4.92;100.00;101099.13;5070784;28;20465;-41
2022/12/13 04:41:15;;;;;;;47.08;18.45;;;;;;;-4.90;100.00;101100.75;5070449;28;20060;-39
2022/12/13 04:43:40;;;;;;;;;;;;;;;-4.88;100.00;101103.28;5064563;28;20084;-38
2022/12/13 04:46:05;;;;;;;42.45;18.83;;;;;;;-4.90;100.00;101106.00;5069924;28;19999;-39
2022/12/13 04:48:31;;;;;;;43.42;18.23;;;;;;;-4.91;100.00;101106.06;5053864;28;20071;-39
2022/12/13 04:50:57;;;;;;;43.78;17.88;;;;;;;-4.90;100.00;101095.50;5058642;28;20031;-41
2022/12/13 04:53:22;;;;;;;43.83;18.10;;;;;;;-4.90;100.00;101099.88;5059753;28;20418;-38
2022/12/13 04:55:47;;;;;;;39.83;17.48;;;;;;;-4.91;100.00;101099.03;5052321;28;20059;-40
2022/12/13 04:58:13;;;;;;;40.05;17.40;;;;;;;-4.94;100.00;101096.56;5052013;28;20029;-40
2022/12/13 05:00:39;;;;;;;45.05;17.83;;;;;;;-4.92;100.00;101099.97;5067295;28;20029;-39
2022/12/13 05:03:05;;;;;;;39.33;16.65;;;;;;;-4.95;100.00;101094.00;5059364;28;20046;-39
2022/12/13 05:05:30;;;;;;;42.33;17.55;;;;;;;-4.94;100.00;101100.97;5071704;28;20029;-37
2022/12/13 05:07:55;;;;;;;38.60;17.75;;;;;;;-4.94;100.00;101101.81;5069181;28;20115;-40
2022/12/13 05:10:21;;;;;;;45.42;18.23;;;;;;;-4.95;100.00;101081.75;5054984;28;20112;-39
2022/12/13 05:12:46;;;;;;;39.80;16.80;;;;;;;-4.97;100.00;101085.38;5056387;28;20025;-38
2022/12/13 05:15:11;;;;;;;45.33;17.83;;;;;;;-4.97;100.00;101086.22;5051333;28;20068;-38
2022/12/13 05:17:37;;;;;;;41.50;17.13;;;;;;;-5.02;100.00;101085.59;5052836;28;20057;-39
2022/12/13 05:20:02;;;;;;;45.33;18.52;;;;;;;-5.08;100.00;101091.16;5071856;28;20024;-37
2022/12/13 05:22:28;;;;;;;39.63;17.50;;;;;;;-5.09;100.00;101086.81;5066731;28;20024;-38
2022/12/13 05:24:53;;;;;;;41.30;17.92;;;;;;;-5.11;100.00;101079.03;5056762;28;20226;-40
2022/12/13 05:27:19;;;;;;;44.55;19.00;;;;;;;-5.13;100.00;101080.88;5057444;28;20048;-39
2022/12/13 05:29:44;;;;;;;46.70;18.35;;;;;;;-5.12;100.00;101087.81;5071697;28;20024;-41
2022/12/13 05:32:09;;;;;;;42.90;17.08;;;;;;;-5.11;100.00;101081.66;5062614;28;20444;-39
2022/12/13 05:34:35;;;;;;;41.40;17.55;;;;;;;-5.04;100.00;101083.97;5061773;28;20060;-40
2022/12/13 05:37:00;;;;;;;44.03;17.80;;;;;;;-5.02;100.00;101076.88;5050917;28;20017;-38
2022/12/13 05:39:26;;;;;;;47.03;17.77;;;;;;;-5.03;100.00;101077.78;5063607;28;20032;-39
2022/12/13 05:41:51;;;;;;;45.65;19.15;;;;;;;-5.01;100.00;101078.56;5055166;28;20025;-39
2022/12/13 05:44:17;;;;;;;43.97;17.75;;;;;;;-5.02;100.00;101075.09;5062054;28;20169;-41
2022/12/13 05:46:42;;;;;;;50.75;19.08;;;;;;;-4.99;100.00;101076.72;5049615;28;20056;-38
2022/12/13 05:49:07;;;;;;;50.10;19.50;;;;;;;-4.98;100.00;101073.16;5083016;28;20150;-38
2022/12/13 05:51:33;;;;;;;51.40;19.80;;;;;;;-4.96;100.00;101079.19;5068595;28;20037;-41
2022/12/13 05:53:58;;;;;;;41.60;19.45;;;;;;;-4.98;100.00;101067.91;5054256;28;20044;-39
2022/12/13 05:56:23;;;;;;;46.33;18.77;;;;;;;-5.00;100.00;101073.25;5048538;28;20047;-41
2022/12/13 05:58:49;;;;;;;46.83;19.73;;;;;;;-4.98;100.00;101078.41;5061121;28;20040;-40
2022/12/13 06:01:15;;;;;;;51.50;20.80;;;;;;;-4.98;100.00;101076.63;5054219;28;20496;-38
2022/12/13 06:03:41;;;;;;;51.00;19.58;;;;;;;-4.97;100.00;101065.22;5054553;28;20056;-41
2022/12/13 06:06:08;;;;;;;47.35;19.77;;;;;;;-4.97;100.00;101067.00;5050884;28;20029;-39
2022/12/13 06:08:34;;;;;;;46.67;18.35;;;;;;;-4.95;100.00;101071.25;5068905;28;20480;-41
2022/12/13 06:11:01;;;;;;;47.15;19.08;;;;;;;-4.96;100.00;101071.31;5065113;28;20029;-40
2022/12/13 06:13:26;;;;;;;53.28;19.85;;;;;;;-4.96;100.00;101066.06;5052119;28;20036;-40
2022/12/13 06:15:52;;;;;;;46.80;19.40;;;;;;;-4.97;100.00;101064.38;5056212;28;20079;-39
2022/12/13 06:18:18;;;;;;;50.95;19.23;;;;;;;-4.97;100.00;101065.22;5064965;28;20074;-40
2022/12/13 06:20:43;;;;;;;54.88;19.50;;;;;;;-4.97;100.00;101064.38;5056718;28;20056;-37
2022/12/13 06:23:09;;;;;;;47.25;19.20;;;;;;;-5.00;100.00;101054.00;5058833;28;20488;-39
2022/12/13 06:25:35;;;;;;;47.35;18.83;;;;;;;-5.01;100.00;101062.81;5056432;28;20024;-38
2022/12/13 06:28:01;;;;;;;50.05;18.73;;;;;;;-5.02;100.00;101061.97;5055840;28;20079;-40
2022/12/13 06:30:26;;;;;;;48.00;19.33;;;;;;;-5.05;100.00;101063.88;5061214;28;20033;-40
2022/12/13 06:32:51;;;;;;;49.92;18.52;;;;;;;-5.04;100.00;101060.34;5056773;28;21425;-40
2022/12/13 06:35:17;;;;;;;49.90;20.50;;;;;;;-5.03;100.00;101073.38;5066631;28;20028;-38
2022/12/13 06:37:42;;;;;;;53.95;18.42;;;;;;;-5.01;100.00;101073.31;5063836;28;20037;-38
2022/12/13 06:40:08;;;;;;;45.67;18.70;;;;;;;-5.00;100.00;101075.00;5078298;28;20099;-40
2022/12/13 06:42:33;;;;;;;45.53;18.70;;;;;;;-5.00;100.00;101075.88;5076799;28;20040;-40
2022/12/13 06:44:59;;;;;;;51.90;20.23;;;;;;;-5.03;100.00;101073.38;5035851;28;20144;-39
2022/12/13 06:47:25;;;;;;;43.08;18.45;;;;;;;-5.00;100.00;101075.00;5059630;28;20430;-40
2022/12/13 06:49:51;;;;;;;45.58;19.17;;;;;;;-4.98;100.00;101083.66;5061969;28;20033;-42
2022/12/13 06:52:16;;;;;;;47.53;18.88;;;;;;;-5.00;100.00;101081.13;5062446;28;20047;-40
2022/12/13 06:54:42;;;;;;;48.80;19.13;;;;;;;-5.05;100.00;101072.63;5064946;28;20111;-39
2022/12/13 06:57:08;;;;;;;54.55;19.60;;;;;;;-5.05;100.00;101077.88;5061839;28;20044;-42
2022/12/13 06:59:33;;;;;;;48.28;19.42;;;;;;;-5.05;100.00;101085.75;5064579;28;20044;-40
2022/12/13 07:01:58;;;;;;;56.60;20.02;;;;;;;-5.02;100.00;101082.13;5059548;28;20036;-41
2022/12/13 07:04:24;;;;;;;46.72;18.45;;;;;;;-4.98;100.00;101067.91;5065288;28;20526;-40
2022/12/13 07:06:49;;;;;;;50.22;19.30;;;;;;;-4.98;100.00;101067.91;5064033;28;20028;-41
2022/12/13 07:09:14;;;;;;;47.00;18.63;;;;;;;-4.96;100.00;101071.31;5065183;28;20051;-41
2022/12/13 07:11:40;;;;;;;47.08;19.60;;;;;;;-4.96;100.00;101071.31;5067388;28;20489;-40
2022/12/13 07:14:05;;;;;;;51.70;19.38;;;;;;;-4.98;100.00;101070.53;5065045;28;20028;-39
2022/12/13 07:16:30;;;;;;;54.42;19.02;;;;;;;-4.96;100.00;101071.31;5061286;28;20143;-39
2022/12/13 07:19:00;;;;;;;47.75;20.02;;;;;;;-4.93;100.00;101076.41;5064229;28;20503;-42
2022/12/13 07:21:26;;;;;;;50.42;18.85;;;;;;;-4.92;100.00;101073.72;5065244;28;20464;-39
2022/12/13 07:23:51;;;;;;;49.40;19.98;;;;;;;-4.88;100.00;101077.03;5065761;28;20162;-40
2022/12/13 07:26:18;;;;;;;57.17;21.00;;;;;;;-4.91;100.00;101079.81;5063034;28;20030;-39
2022/12/13 07:28:44;;;;;;;62.25;19.80;;;;;;;-4.94;100.00;101083.44;5062284;28;20136;-40
2022/12/13 07:31:10;;;;;;;51.92;19.75;;;;;;;-4.93;100.00;101082.50;5063510;28;20267;-40
2022/12/13 07:33:36;;;;;;;50.80;19.35;;;;;;;-4.91;100.00;101087.69;5064481;28;20567;-39
2022/12/13 07:36:16;;;;;;;43.13;19.73;;;;;;;-4.91;100.00;101080.66;5057380;28;20033;-40
2022/12/13 07:38:42;;;;;;;51.40;20.88;;;;;;;-4.87;100.00;101099.72;5058036;28;20060;-39
2022/12/13 07:41:08;;;;;;;48.67;18.83;;;;;;;-4.88;100.00;101100.66;5062110;28;20421;-39
2022/12/13 07:43:34;;;;;;;52.67;19.40;;;;;;;-4.84;100.00;101104.84;5064150;28;20064;-40
2022/12/13 07:46:02;;;;;;;43.10;19.08;;;;;;;-4.82;100.00;101102.97;5059814;28;20059;-39
2022/12/13 07:48:27;;;;;;;50.80;19.80;;;;;;;-4.78;100.00;101093.19;5064448;28;20070;-39
2022/12/13 07:50:54;;;;;;;45.65;18.65;;;;;;;-4.76;100.00;101092.19;5059428;28;20079;-41
2022/12/13 07:53:20;;;;;;;45.47;18.38;;;;;;;-4.74;100.00;101090.31;5065674;28;20138;-40
2022/12/13 07:55:45;;;;;;;56.28;20.27;;;;;;;-4.67;100.00;101088.22;5063410;28;20036;-40
2022/12/13 07:58:13;;;;;;;53.67;19.80;;;;;;;-4.56;100.00;101091.13;5064080;28;20044;-40
2022/12/13 08:00:41;;;;;;;41.72;19.63;;;;;;;-4.52;100.00;101097.94;5063091;28;20127;-39
2022/12/13 08:03:07;;;;;;;48.30;19.88;;;;;;;-4.50;100.00;101097.84;5060430;28;20485;-41
2022/12/13 08:05:33;;;;;;;51.30;20.15;;;;;;;-4.45;100.00;101103.72;5063767;28;20028;-43
2022/12/13 08:08:02;;;;;;;47.25;20.05;;;;;;;-4.41;100.00;101107.91;5063776;28;20028;-41
2022/12/13 08:10:28;;;;;;;58.20;21.25;;;;;;;-4.36;100.00;101112.91;5061495;28;20491;-41
2022/12/13 08:12:54;;;;;;;56.70;20.05;;;;;;;-4.33;100.00;101113.59;5060636;28;20051;-41
2022/12/13 08:15:20;;;;;;;51.25;20.13;;;;;;;-4.29;100.00;101115.16;5063705;28;20445;-42
2022/12/13 08:17:46;;;;;;;58.63;21.80;;;;;;;-4.16;100.00;101120.63;5062111;28;20028;-42
2022/12/13 08:20:11;;;;;;;45.47;20.17;;;;;;;-3.98;100.00;101119.66;5062603;28;20031;-40
2022/12/13 08:22:36;;;;;;;53.95;20.73;;;;;;;-3.71;100.00;101110.31;5060936;28;20038;-40
2022/12/13 08:25:02;;;;;;;53.03;20.73;;;;;;;-3.58;100.00;101116.59;5059846;28;20518;-41
2022/12/13 08:27:27;;;;;;;43.47;20.58;;;;;;;-3.45;100.00;101122.91;5058203;28;20045;-38
2022/12/13 08:29:53;;;;;;;44.70;20.75;;;;;;;-3.35;100.00;101113.56;5064863;28;20067;-40
2022/12/13 08:32:18;;;;;;;49.60;21.33;;;;;;;-3.20;100.00;101122.38;5064462;28;20060;-41
2022/12/13 08:34:44;;;;;;;57.28;21.15;;;;;;;-3.16;100.00;101123.03;5062082;28;20063;-41
2022/12/13 08:37:10;;;;;;;49.28;22.20;;;;;;;-2.97;100.00;101122.88;5061743;28;20033;-40
2022/12/13 08:39:37;;;;;;;47.28;20.13;;;;;;;-2.44;100.00;101119.72;5060777;28;20037;-37
2022/12/13 08:42:03;;;;;;;48.03;21.55;;;;;;;-1.80;100.00;101124.63;5062110;28;20111;-40
2022/12/13 08:44:29;;;;;;;44.65;20.70;;;;;;;-1.51;100.00;101121.97;5064105;28;20043;-41
2022/12/13 08:46:54;;;;;;;49.00;21.00;;;;;;;-1.40;100.00;101119.47;5060884;28;20104;-39
2022/12/13 08:49:19;;;;;;;42.65;19.45;;;;;;;-1.50;100.00;101118.38;5063890;28;20056;-40
2022/12/13 08:51:45;;;;;;;43.38;18.65;;;;;;;-1.51;100.00;101116.69;5063403;28;20090;-40
2022/12/13 08:54:10;;;;;;;42.42;18.58;;;;;;;-1.71;100.00;101115.28;5061132;28;20101;-39
2022/12/13 08:56:35;;;;;;;42.40;18.80;;;;;;;-1.73;100.00;101109.28;5064011;28;20032;-40
2022/12/13 08:59:01;;;;;;;38.42;17.75;;;;;;;-1.72;100.00;101108.34;5059526;28;20068;-38
2022/12/13 09:01:26;;;;;;;45.45;18.98;;;;;;;-1.63;100.00;101108.59;5059420;28;20039;-39
2022/12/13 09:03:54;;;;;;;44.10;20.27;;;;;;;-1.57;100.00;101108.22;5061147;28;20112;-40
2022/12/13 09:06:19;;;;;;;43.13;18.70;;;;;;;-1.64;100.00;101108.69;5060483;28;20031;-41
2022/12/13 09:08:44;;;;;;;45.42;19.83;;;;;;;-1.63;100.00;101107.78;5063123;28;20048;-41
2022/12/13 09:11:10;;;;;;;50.17;18.63;;;;;;;-1.68;100.00;101102.78;5057380;28;20759;-39
2022/12/13 09:13:39;;;;;;;45.90;19.63;;;;;;;-1.65;100.00;101105.22;5059859;28;20037;-40
2022/12/13 09:16:05;;;;;;;43.75;18.70;;;;;;;-1.71;100.00;101102.97;5061818;28;20033;-39
2022/12/13 09:18:31;;;;;;;49.00;20.90;;;;;;;-1.74;100.00;101111.06;5058097;28;20134;-40
2022/12/13 09:20:56;;;;;;;45.55;19.15;;;;;;;-1.76;100.00;101107.69;5056471;28;20679;-41
2022/12/13 09:23:21;;;;;;;39.88;19.17;;;;;;;-1.69;100.00;101111.63;5061688;28;20539;-41
2022/12/13 09:25:59;;;;;;;42.90;18.45;;;;;;;-1.68;100.00;101107.22;5059990;28;20036;-41
2022/12/13 09:28:25;;;;;;;56.30;19.25;;;;;;;-1.59;100.00;101115.38;5057909;28;20105;-41
2022/12/13 09:30:50;;;;;;;44.55;20.42;;;;;;;-1.46;100.00;101111.97;5061132;28;20471;-41
2022/12/13 09:33:16;;;;;;;52.17;19.40;;;;;;;-1.48;100.00;101111.22;5059720;28;20036;-41
2022/12/13 09:35:41;;;;;;;46.58;18.70;;;;;;;-1.12;100.00;101102.72;5061338;28;20040;-41
2022/12/13 09:38:07;;;;;;;41.85;19.02;;;;;;;-1.18;100.00;101098.69;5057712;28;20052;-40
2022/12/13 09:40:33;;;;;;;49.38;20.58;;;;;;;-0.93;100.00;101102.34;5060840;28;20514;-40
2022/12/13 09:42:59;;;;;;;47.10;18.70;;;;;;;-0.84;100.00;101103.53;5059661;28;20036;-39
2022/12/13 09:45:26;;;;;;;45.47;19.63;;;;;;;-1.04;100.00;101102.22;5059094;28;20031;-40
2022/12/13 09:47:52;;;;;;;44.60;18.90;;;;;;;-0.86;100.00;101103.63;5062089;28;20436;-40
2022/12/13 09:50:23;;;;;;;38.40;18.55;;;;;;;-0.75;100.00;101090.53;5061187;28;20028;-40
2022/12/13 09:52:48;;;;;;;45.53;19.55;;;;;;;-0.44;100.00;101093.78;5058839;28;20028;-41
2022/12/13 09:55:16;;;;;;;42.22;18.85;;;;;;;-0.42;100.00;101099.81;5061589;28;20055;-41
2022/12/13 09:57:42;;;;;;;39.20;18.42;;;;;;;-0.27;100.00;101098.72;5061674;28;20522;-41
2022/12/13 10:00:15;;;;;;;40.97;17.30;;;;;;;-0.29;100.00;101098.00;5057355;28;20107;-41
2022/12/13 10:02:46;;;;;;;37.05;18.00;;;;;;;-0.56;100.00;101097.25;5058977;28;20064;-39
2022/12/13 10:05:18;;;;;;;42.33;19.30;;;;;;;-0.77;100.00;101092.44;5060721;28;20104;-40
2022/12/13 10:07:44;;;;;;;35.58;17.45;;;;;;;-0.75;100.00;101090.53;5061480;28;20032;-42
2022/12/13 10:10:13;;;;;;;44.50;17.73;;;;;;;-0.96;100.00;101086.69;5062149;28;20056;-39
2022/12/13 10:12:38;;;;;;;;;;;;;;;-1.05;100.00;101076.72;5058427;28;20079;-38
2022/12/13 10:15:04;;;;;;;39.83;18.08;;;;;;;-1.08;100.00;101082.22;5059526;28;19920;-38
2022/12/13 10:17:35;;;;;;;46.58;19.30;;;;;;;-1.06;100.00;101078.53;5061174;28;20376;-40
2022/12/13 10:20:02;;;;;;;38.90;19.10;;;;;;;-0.89;100.00;101072.97;5043257;28;20046;-40
2022/12/13 10:22:27;;;;;;;40.08;19.10;;;;;;;-0.62;100.00;101068.59;5058439;28;20037;-39
2022/12/13 10:25:04;;;;;;;38.70;18.17;;;;;;;-0.35;100.00;101071.13;5062446;28;20531;-39
2022/12/13 10:27:41;;;;;;;43.10;18.50;;;;;;;0.05;100.00;101058.59;5060158;28;20044;-40
2022/12/13 10:30:21;;;;;;;43.15;18.23;;;;;;;0.14;100.00;101057.97;5059444;28;21504;-39
2022/12/13 10:32:54;;;;;;;37.72;17.52;;;;;;;0.14;100.00;101052.66;5060697;28;20084;-39
2022/12/13 10:35:29;;;;;;;45.05;18.85;;;;;;;0.00;100.00;101055.47;5063240;28;20052;-42
2022/12/13 10:37:56;;;;;;;39.53;17.80;;;;;;;-0.12;100.00;101041.28;5063727;28;20039;-39
2022/12/13 10:40:36;;;;;;;39.90;17.90;;;;;;;-0.29;100.00;101039.81;5063766;28;20032;-39
2022/12/13 10:43:10;;;;;;;37.40;18.95;;;;;;;-0.40;100.00;101044.16;5061587;28;20491;-38
2022/12/13 10:45:35;;;;;;;43.10;20.73;;;;;;;-0.69;100.00;101039.91;5064995;28;20328;-42
2022/12/13 10:48:01;;;;;;;42.22;19.30;;;;;;;-0.58;100.00;101038.31;5063230;28;20515;-39
2022/12/13 10:50:28;;;;;;;37.97;17.67;;;;;;;-0.16;100.00;101033.66;5063727;28;20198;-37
2022/12/13 10:52:54;;;;;;;43.20;20.20;;;;;;;0.11;100.00;101037.00;5064958;28;20440;-39
2022/12/13 10:55:30;;;;;;;44.05;20.17;;;;;;;-0.07;100.00;101038.31;5062552;28;20039;-40
2022/12/13 10:57:58;;;;;;;36.63;17.88;;;;;;;0.01;100.00;101030.69;5061290;28;20055;-40
2022/12/13 11:00:44;;;;;;;42.63;19.05;;;;;;;0.14;100.00;101030.66;5062580;28;20115;-40
2022/12/13 11:03:13;;;;;;;41.38;18.90;;;;;;;0.34;100.00;101027.41;5060830;28;20341;-38
2022/12/13 11:05:39;;;;;;;39.53;20.20;;;;;;;0.64;100.00;101023.47;5062358;28;20510;-40
2022/12/13 11:08:19;;;;;;;38.40;17.70;;;;;;;0.40;100.00;101023.47;5060266;28;20036;-38